createdAt,value
2022-09-28T00:01:27.173Z,53.12
2022-09-28T00:04:30.354Z,53.12
2022-09-28T00:07:33.347Z,52.99
2022-09-28T00:10:37.794Z,53.17
2022-09-28T00:13:41.288Z,53.46
2022-09-28T00:16:45.786Z,52.96
2022-09-28T00:19:48.863Z,52.81
2022-09-28T00:22:52.249Z,52.96
2022-09-28T00:25:56.723Z,53.40
2022-09-28T00:29:01.915Z,52.83
2022-09-28T00:32:06.987Z,53.03
2022-09-28T00:35:10.911Z,53.42
2022-09-28T00:38:16.757Z,53.15
2022-09-28T00:41:21.237Z,53.00
2022-09-28T00:44:54.006Z,53.51
2022-09-28T00:48:00.595Z,53.20
2022-09-28T00:51:09.201Z,52.77
2022-09-28T00:54:14.715Z,52.63
2022-09-28T00:57:19.195Z,53.14
2022-09-28T01:00:22.335Z,52.84
2022-09-28T01:03:26.547Z,52.90
2022-09-28T01:06:34.654Z,52.64
2022-09-28T01:09:40.759Z,53.05
2022-09-28T01:12:45.269Z,52.97
2022-09-28T01:15:55.154Z,53.00
2022-09-28T01:19:12.973Z,52.87
2022-09-28T01:22:32.060Z,53.05
2022-09-28T01:25:42.228Z,52.85
2022-09-28T01:28:51.791Z,52.55
2022-09-28T01:32:02.544Z,52.46
2022-09-28T01:35:10.299Z,52.67
2022-09-28T01:38:18.641Z,52.85
2022-09-28T01:41:24.086Z,52.70
2022-09-28T01:44:31.334Z,52.60
2022-09-28T01:47:39.664Z,52.50
2022-09-28T01:50:45.756Z,52.55
2022-09-28T01:53:52.749Z,52.39
2022-09-28T01:57:01.658Z,52.63
2022-09-28T02:00:10.659Z,52.44
2022-09-28T02:03:17.889Z,52.03
2022-09-28T02:06:26.547Z,52.47
2022-09-28T02:09:36.054Z,52.47
2022-09-28T02:12:42.748Z,51.96
2022-09-28T02:15:52.854Z,51.93
2022-09-28T02:18:56.569Z,51.80
2022-09-28T02:22:05.636Z,51.99
2022-09-28T02:25:13.005Z,51.71
2022-09-28T02:28:16.097Z,51.88
2022-09-28T02:31:20.929Z,52.06
2022-09-28T02:34:24.407Z,51.82
2022-09-28T02:37:28.444Z,51.91
2022-09-28T02:40:34.018Z,51.54
2022-09-28T02:43:51.260Z,51.66
2022-09-28T02:47:01.315Z,51.78
2022-09-28T02:50:16.288Z,51.78
2022-09-28T02:53:51.531Z,51.46
2022-09-28T02:57:04.494Z,51.52
2022-09-28T03:00:11.987Z,51.77
2022-09-28T03:03:22.000Z,51.83
2022-09-28T03:06:32.986Z,51.39
2022-09-28T03:09:42.309Z,50.91
2022-09-28T03:12:47.533Z,51.04
2022-09-28T03:15:50.570Z,50.76
2022-09-28T03:18:55.383Z,50.69
2022-09-28T03:21:59.439Z,50.06
2022-09-28T03:25:02.626Z,50.01
2022-09-28T03:28:05.839Z,50.34
2022-09-28T03:31:08.978Z,50.01
2022-09-28T03:34:13.728Z,49.83
2022-09-28T03:37:17.002Z,50.45
2022-09-28T03:40:20.100Z,49.54
2022-09-28T03:43:24.305Z,49.73
2022-09-28T03:46:27.493Z,49.57
2022-09-28T03:49:32.047Z,49.61
2022-09-28T03:52:35.136Z,49.70
2022-09-28T03:55:38.443Z,49.65
2022-09-28T03:58:41.813Z,49.66
2022-09-28T04:01:44.906Z,49.78
2022-09-28T04:04:49.569Z,50.47
2022-09-28T04:07:53.929Z,50.19
2022-09-28T04:10:57.918Z,50.58
2022-09-28T04:14:00.937Z,50.34
2022-09-28T04:17:05.016Z,50.75
2022-09-28T04:20:10.546Z,51.34
2022-09-28T04:23:13.660Z,49.99
2022-09-28T04:26:18.813Z,49.45
2022-09-28T04:29:21.104Z,49.94
2022-09-28T04:32:24.696Z,49.75
2022-09-28T04:35:29.190Z,49.57
2022-09-28T04:38:51.799Z,49.96
2022-09-28T04:41:55.306Z,49.67
2022-09-28T04:44:58.936Z,49.94
2022-09-28T04:48:02.260Z,49.56
2022-09-28T04:51:06.964Z,49.66
2022-09-28T04:54:10.008Z,50.00
2022-09-28T04:57:12.996Z,50.63
2022-09-28T05:00:17.208Z,50.64
2022-09-28T05:03:21.027Z,50.04
2022-09-28T05:06:28.097Z,50.34
2022-09-28T05:09:33.990Z,50.17
2022-09-28T05:12:43.288Z,49.93
2022-09-28T05:15:47.417Z,49.89
2022-09-28T05:18:50.444Z,50.48
2022-09-28T05:21:58.161Z,50.60
2022-09-28T05:25:03.150Z,50.44
2022-09-28T05:28:06.777Z,50.60
2022-09-28T05:31:09.870Z,50.17
2022-09-28T05:34:12.880Z,50.14
2022-09-28T05:37:17.758Z,50.19
2022-09-28T05:40:21.248Z,50.54
2022-09-28T05:43:24.559Z,50.52
2022-09-28T05:46:27.799Z,50.63
2022-09-28T05:49:32.666Z,50.34
2022-09-28T05:52:37.231Z,50.37
2022-09-28T05:55:40.470Z,50.52
2022-09-28T05:58:43.559Z,51.03
2022-09-28T06:01:46.727Z,50.51
2022-09-28T06:04:53.709Z,50.61
2022-09-28T06:07:59.903Z,50.46
2022-09-28T06:11:03.831Z,50.79
2022-09-28T06:14:07.858Z,50.58
2022-09-28T06:17:10.979Z,50.40
2022-09-28T06:20:14.268Z,50.50
2022-09-28T06:23:19.058Z,50.22
2022-09-28T06:26:22.692Z,50.07
2022-09-28T06:29:25.740Z,50.17
2022-09-28T06:32:29.850Z,50.73
2022-09-28T06:35:33.843Z,50.99
2022-09-28T06:38:39.000Z,50.37
2022-09-28T06:41:42.620Z,51.22
2022-09-28T06:44:47.169Z,51.28
2022-09-28T06:47:54.878Z,51.61
2022-09-28T06:50:57.927Z,50.62
2022-09-28T06:54:02.375Z,50.80
2022-09-28T06:57:06.195Z,51.14
2022-09-28T07:00:10.693Z,51.20
2022-09-28T07:03:15.826Z,50.79
2022-09-28T07:06:20.834Z,50.76
2022-09-28T07:09:33.031Z,51.22
2022-09-28T07:12:36.665Z,50.82
2022-09-28T07:15:40.214Z,50.81
2022-09-28T07:18:43.384Z,51.00
2022-09-28T07:21:54.261Z,51.27
2022-09-28T07:25:03.991Z,50.54
2022-09-28T07:28:07.129Z,50.91
2022-09-28T07:31:12.020Z,50.52
2022-09-28T07:34:15.319Z,50.81
2022-09-28T07:37:20.208Z,51.09
2022-09-28T07:40:45.134Z,50.56
2022-09-28T07:43:51.542Z,51.05
2022-09-28T07:46:54.797Z,51.18
2022-09-28T07:49:58.048Z,50.85
2022-09-28T07:53:01.706Z,51.46
2022-09-28T07:56:09.909Z,51.22
2022-09-28T07:59:13.932Z,51.12
2022-09-28T08:02:18.660Z,51.29
2022-09-28T08:05:21.976Z,50.64
2022-09-28T08:08:25.076Z,51.29
2022-09-28T08:11:29.666Z,51.08
2022-09-28T08:14:34.542Z,51.13
2022-09-28T08:17:37.703Z,50.70
2022-09-28T08:21:12.592Z,50.54
2022-09-28T08:24:17.156Z,50.53
2022-09-28T08:27:21.798Z,50.78
2022-09-28T08:30:25.120Z,50.34
2022-09-28T08:33:28.262Z,50.52
2022-09-28T08:36:31.329Z,50.14
2022-09-28T08:39:34.965Z,50.26
2022-09-28T08:42:43.198Z,49.98
2022-09-28T08:45:46.536Z,50.27
2022-09-28T08:49:20.679Z,50.11
2022-09-28T08:52:23.707Z,50.14
2022-09-28T08:55:32.191Z,49.75
2022-09-28T08:58:42.289Z,49.58
2022-09-28T09:01:50.249Z,50.11
2022-09-28T09:04:53.891Z,49.69
2022-09-28T09:08:23.331Z,50.13
2022-09-28T09:11:43.211Z,50.17
2022-09-28T09:15:20.654Z,50.12
2022-09-28T09:18:35.486Z,50.41
2022-09-28T09:21:42.716Z,50.58
2022-09-28T09:24:52.061Z,50.77
2022-09-28T09:28:19.446Z,50.72
2022-09-28T09:31:41.240Z,50.88
2022-09-28T09:35:10.239Z,50.48
2022-09-28T09:38:37.136Z,50.65
2022-09-28T09:41:54.758Z,50.06
2022-09-28T09:45:12.913Z,49.99
2022-09-28T09:48:27.289Z,50.55
2022-09-28T09:51:38.451Z,50.13
2022-09-28T09:54:47.413Z,49.89
2022-09-28T09:57:57.040Z,50.12
2022-09-28T10:01:07.706Z,50.00
2022-09-28T10:04:19.453Z,49.99
2022-09-28T10:07:26.895Z,49.43
2022-09-28T10:10:32.171Z,49.71
2022-09-28T10:13:35.604Z,49.32
2022-09-28T10:16:38.878Z,49.71
2022-09-28T10:19:44.676Z,49.82
2022-09-28T10:22:48.697Z,49.64
2022-09-28T10:25:54.368Z,49.76
2022-09-28T10:29:02.069Z,49.65
2022-09-28T10:32:19.856Z,49.58
2022-09-28T10:35:28.271Z,49.99
2022-09-28T10:38:35.504Z,49.53
2022-09-28T10:41:52.565Z,49.48
2022-09-28T10:44:59.462Z,49.57
2022-09-28T10:48:04.330Z,49.61
2022-09-28T10:51:09.806Z,49.52
2022-09-28T10:54:17.435Z,49.68
2022-09-28T10:57:29.766Z,49.64
2022-09-28T11:00:37.431Z,49.76
2022-09-28T11:03:52.454Z,49.46
2022-09-28T11:10:04.325Z,49.14
2022-09-28T11:13:10.926Z,49.37
2022-09-28T11:16:26.646Z,49.16
2022-09-28T11:19:30.916Z,49.53
2022-09-28T11:22:42.774Z,49.42
2022-09-28T11:25:58.085Z,49.35
2022-09-28T11:29:01.150Z,49.48
2022-09-28T11:32:06.302Z,48.96
2022-09-28T11:35:19.855Z,49.63
2022-09-28T11:38:40.934Z,48.88
2022-09-28T11:41:55.413Z,48.97
2022-09-28T11:45:05.872Z,48.02
2022-09-28T11:48:16.183Z,47.76
2022-09-28T11:51:27.375Z,48.25
2022-09-28T11:54:38.855Z,48.46
2022-09-28T11:57:46.455Z,47.17
2022-09-28T12:00:55.728Z,47.71
2022-09-28T12:04:03.577Z,47.61
2022-09-28T12:07:12.848Z,47.62
2022-09-28T12:10:23.353Z,47.96
2022-09-28T12:13:29.559Z,47.44
2022-09-28T12:20:06.011Z,46.64
2022-09-28T12:23:15.153Z,46.84
2022-09-28T12:26:30.508Z,47.04
2022-09-28T12:29:42.223Z,46.85
2022-09-28T12:32:50.677Z,47.22
2022-09-28T12:36:10.225Z,47.40
2022-09-28T12:39:57.510Z,47.92
2022-09-28T12:43:30.313Z,47.93
2022-09-28T12:46:50.632Z,47.76
2022-09-28T12:50:37.590Z,48.13
2022-09-28T12:53:57.265Z,48.15
2022-09-28T12:57:18.231Z,47.87
2022-09-28T13:00:25.316Z,47.91
2022-09-28T13:03:52.205Z,48.32
2022-09-28T13:07:06.651Z,48.08
2022-09-28T13:10:20.829Z,48.12
2022-09-28T13:13:39.356Z,48.42
2022-09-28T13:16:52.180Z,48.35
2022-09-28T13:19:59.898Z,47.79
2022-09-28T13:23:21.108Z,47.82
2022-09-28T13:26:28.895Z,48.28
2022-09-28T13:29:35.086Z,48.08
2022-09-28T13:32:40.211Z,48.22
2022-09-28T13:35:45.353Z,47.89
2022-09-28T13:38:52.717Z,45.82
2022-09-28T13:41:56.082Z,45.63
2022-09-28T13:45:28.230Z,45.47
2022-09-28T13:48:48.725Z,45.45
2022-09-28T13:52:05.745Z,43.83
2022-09-28T13:55:33.309Z,45.04
2022-09-28T13:58:43.819Z,44.50
2022-09-28T14:01:55.980Z,44.30
2022-09-28T14:05:03.088Z,44.13
2022-09-28T14:08:34.845Z,43.88
2022-09-28T14:11:55.643Z,43.36
2022-09-28T14:14:59.247Z,43.35
2022-09-28T14:18:11.657Z,43.08
2022-09-28T14:21:38.105Z,42.94
2022-09-28T14:25:08.506Z,42.68
2022-09-28T14:28:29.684Z,42.96
2022-09-28T14:31:32.850Z,43.16
2022-09-28T14:34:38.226Z,43.64
2022-09-28T14:38:01.248Z,43.77
2022-09-28T14:41:14.314Z,43.62
2022-09-28T14:44:17.473Z,44.32
2022-09-28T14:47:34.385Z,44.02
2022-09-28T14:50:37.903Z,44.41
2022-09-28T14:53:43.387Z,44.43
2022-09-28T14:56:57.780Z,44.86
2022-09-28T15:00:02.213Z,44.83
2022-09-28T15:03:11.414Z,44.75
2022-09-28T15:06:17.171Z,44.99
2022-09-28T15:09:33.194Z,45.25
2022-09-28T15:12:36.260Z,45.52
2022-09-28T15:15:42.412Z,45.63
2022-09-28T15:19:05.020Z,46.03
2022-09-28T15:22:17.101Z,46.08
2022-09-28T15:25:25.048Z,45.81
2022-09-28T15:28:28.169Z,46.09
2022-09-28T15:31:37.306Z,45.94
2022-09-28T15:34:57.058Z,46.42
2022-09-28T15:38:00.349Z,46.46
2022-09-28T15:41:07.843Z,46.28
2022-09-28T15:44:37.235Z,46.12
2022-09-28T15:47:41.169Z,46.64
2022-09-28T15:51:11.178Z,47.19
2022-09-28T15:54:19.760Z,47.31
2022-09-28T15:57:39.552Z,47.78
2022-09-28T16:00:43.402Z,48.00
2022-09-28T16:03:46.506Z,47.96
2022-09-28T16:07:06.826Z,47.67
2022-09-28T16:10:30.432Z,47.75
2022-09-28T16:13:35.533Z,47.97
2022-09-28T16:16:49.767Z,47.71
2022-09-28T16:19:52.889Z,47.70
2022-09-28T16:22:57.208Z,48.12
2022-09-28T16:26:03.166Z,49.00
2022-09-28T16:29:26.718Z,49.95
2022-09-28T16:32:56.536Z,49.94
2022-09-28T16:36:08.473Z,50.34
2022-09-28T16:39:12.592Z,50.43
2022-09-28T16:42:15.805Z,47.43
2022-09-28T16:45:23.427Z,49.66
2022-09-28T16:48:32.229Z,48.83
2022-09-28T16:51:35.421Z,48.20
2022-09-28T16:54:56.362Z,48.56
2022-09-28T16:58:04.977Z,48.19
2022-09-28T17:01:13.223Z,47.71
2022-09-28T17:04:16.618Z,47.06
2022-09-28T17:07:20.738Z,47.39
2022-09-28T17:10:50.197Z,47.04
2022-09-28T17:14:03.614Z,47.02
2022-09-28T17:20:32.544Z,46.92
2022-09-28T17:23:37.439Z,47.03
2022-09-28T17:26:51.012Z,47.25
2022-09-28T17:30:46.504Z,47.21
2022-09-28T17:33:51.714Z,47.54
2022-09-28T17:36:56.184Z,47.63
2022-09-28T17:39:59.366Z,47.69
2022-09-28T17:43:04.208Z,48.00
2022-09-28T17:46:26.074Z,48.11
2022-09-28T17:52:46.217Z,48.30
2022-09-28T17:55:49.247Z,48.29
2022-09-28T17:58:52.603Z,48.49
2022-09-28T18:01:58.315Z,48.46
2022-09-28T18:05:05.312Z,48.38
2022-09-28T18:08:08.303Z,48.52
2022-09-28T18:11:11.703Z,48.79
2022-09-28T18:14:17.942Z,48.74
2022-09-28T18:17:20.993Z,48.71
2022-09-28T18:20:25.396Z,48.69
2022-09-28T18:23:28.394Z,48.55
2022-09-28T18:26:31.400Z,48.33
2022-09-28T18:29:34.732Z,47.96
2022-09-28T18:32:38.658Z,48.41
2022-09-28T18:35:51.248Z,47.85
2022-09-28T18:38:54.231Z,48.35
2022-09-28T18:41:57.356Z,48.39
2022-09-28T18:45:00.490Z,48.08
2022-09-28T18:48:03.702Z,48.32
2022-09-28T18:51:11.946Z,48.42
2022-09-28T18:54:15.420Z,48.50
2022-09-28T18:57:18.466Z,48.83
2022-09-28T19:00:21.637Z,48.51
2022-09-28T19:03:24.745Z,48.55
2022-09-28T19:06:30.584Z,48.71
2022-09-28T19:09:33.998Z,48.60
2022-09-28T19:12:39.136Z,49.06
2022-09-28T19:15:42.269Z,48.69
2022-09-28T19:18:45.855Z,48.84
2022-09-28T19:21:50.530Z,49.16
2022-09-28T19:24:53.540Z,48.92
2022-09-28T19:27:56.606Z,48.85
2022-09-28T19:34:03.454Z,49.20
2022-09-28T19:37:07.955Z,49.45
2022-09-28T19:40:11.666Z,49.24
2022-09-28T19:43:14.898Z,49.84
2022-09-28T19:46:18.019Z,50.11
2022-09-28T19:49:22.374Z,49.83
2022-09-28T19:52:26.818Z,50.44
2022-09-28T19:55:36.290Z,50.67
2022-09-28T19:58:39.376Z,50.80
2022-09-28T20:01:42.662Z,50.91
2022-09-28T20:04:45.699Z,50.89
2022-09-28T20:07:50.257Z,51.04
2022-09-28T20:10:54.919Z,51.29
2022-09-28T20:13:59.737Z,51.46
2022-09-28T20:17:06.438Z,51.43
2022-09-28T20:20:09.984Z,51.76
2022-09-28T20:23:14.571Z,51.42
2022-09-28T20:26:18.051Z,51.52
2022-09-28T20:29:21.739Z,51.35
2022-09-28T20:32:24.762Z,51.96
2022-09-28T20:35:32.933Z,51.68
2022-09-28T20:38:40.510Z,51.34
2022-09-28T20:41:43.508Z,51.08
2022-09-28T20:44:49.592Z,51.36
2022-09-28T20:47:52.669Z,50.94
2022-09-28T20:51:00.808Z,51.20
2022-09-28T20:54:05.285Z,51.02
2022-09-28T20:57:17.620Z,51.64
2022-09-28T21:00:20.895Z,51.36
2022-09-28T21:03:24.906Z,51.16
2022-09-28T21:06:29.346Z,50.96
2022-09-28T21:09:33.927Z,51.03
2022-09-28T21:12:37.011Z,50.76
2022-09-28T21:15:40.188Z,50.95
2022-09-28T21:18:43.776Z,50.84
2022-09-28T21:21:46.851Z,51.30
2022-09-28T21:24:51.257Z,51.21
2022-09-28T21:27:54.321Z,50.81
2022-09-28T21:30:58.085Z,51.16
2022-09-28T21:34:04.667Z,51.42
2022-09-28T21:37:07.704Z,51.19
2022-09-28T21:40:12.347Z,51.38
2022-09-28T21:43:15.615Z,51.65
2022-09-28T21:46:18.708Z,51.18
2022-09-28T21:49:22.259Z,51.45
2022-09-28T21:52:26.092Z,51.67
2022-09-28T21:55:31.577Z,51.25
2022-09-28T21:58:36.611Z,51.59
2022-09-28T22:01:42.895Z,51.82
2022-09-28T22:04:46.140Z,51.83
2022-09-28T22:07:49.244Z,51.45
2022-09-28T22:11:01.894Z,51.82
2022-09-28T22:14:04.959Z,51.38
2022-09-28T22:17:07.963Z,51.73
2022-09-28T22:20:11.320Z,52.21
2022-09-28T22:23:14.925Z,51.67
2022-09-28T22:26:21.646Z,51.32
2022-09-28T22:29:24.761Z,51.56
2022-09-28T22:32:27.765Z,51.59
2022-09-28T22:35:30.713Z,51.94
2022-09-28T22:38:34.055Z,52.06
2022-09-28T22:41:38.391Z,51.77
2022-09-28T22:44:41.694Z,52.18
2022-09-28T22:47:44.708Z,51.59
2022-09-28T22:50:51.274Z,51.78
2022-09-28T22:53:54.692Z,51.63
2022-09-28T22:56:59.171Z,52.10
2022-09-28T23:00:02.648Z,51.65
2022-09-28T23:03:05.847Z,52.27
2022-09-28T23:06:10.942Z,52.04
2022-09-28T23:09:14.038Z,52.09
2022-09-28T23:12:18.416Z,51.45
2022-09-28T23:15:21.648Z,51.80
2022-09-28T23:18:24.863Z,51.32
2022-09-28T23:21:29.318Z,51.83
2022-09-28T23:24:32.373Z,51.86
2022-09-28T23:27:41.758Z,51.43
2022-09-28T23:30:44.725Z,51.31
2022-09-28T23:33:47.921Z,51.35
2022-09-28T23:36:53.049Z,50.98
2022-09-28T23:39:56.043Z,50.83
2022-09-28T23:43:00.386Z,50.92
2022-09-28T23:46:03.541Z,51.27
2022-09-28T23:49:06.755Z,50.96
2022-09-28T23:52:09.808Z,51.02
2022-09-28T23:55:12.839Z,51.41
2022-09-28T23:58:17.686Z,51.17
